createdAt,value
2018-12-26T00:10:36.631Z,76.37
2018-12-26T00:26:09.429Z,76.87
2018-12-26T00:41:42.434Z,77.52
2018-12-26T00:57:15.956Z,79.78
2018-12-26T01:12:48.797Z,82.63
2018-12-26T01:28:21.723Z,84.71
2018-12-26T01:43:54.965Z,85.17
2018-12-26T01:59:27.976Z,86.20
2018-12-26T02:15:00.851Z,85.97
2018-12-26T02:30:34.072Z,86.47
2018-12-26T02:46:07.263Z,86.68
2018-12-26T03:01:40.198Z,86.66
2018-12-26T03:17:13.341Z,85.26
2018-12-26T03:32:46.626Z,85.20
2018-12-26T03:48:19.802Z,85.01
2018-12-26T04:03:53.181Z,84.50
2018-12-26T04:19:26.580Z,83.80
2018-12-26T04:34:59.649Z,84.23
2018-12-26T04:50:32.583Z,85.41
2018-12-26T05:06:05.557Z,84.84
2018-12-26T05:21:38.733Z,85.29
2018-12-26T05:37:12.180Z,86.12
2018-12-26T05:52:45.241Z,86.48
2018-12-26T06:08:18.330Z,86.09
2018-12-26T06:23:51.172Z,84.27
2018-12-26T06:39:24.358Z,82.51
2018-12-26T06:54:57.821Z,71.89
2018-12-26T07:10:31.217Z,65.46
2018-12-26T07:26:04.457Z,64.15
2018-12-26T07:41:38.274Z,61.95
2018-12-26T07:57:11.073Z,59.92
2018-12-26T08:12:44.502Z,64.30
2018-12-26T08:28:26.364Z,58.05
2018-12-26T08:43:53.572Z,68.45
2018-12-26T08:59:26.838Z,74.41
2018-12-26T09:15:00.156Z,79.16
2018-12-26T09:30:33.750Z,78.69
2018-12-26T09:46:07.050Z,80.29
2018-12-26T10:01:39.953Z,81.61
2018-12-26T10:17:12.994Z,79.52
2018-12-26T10:32:46.301Z,69.89
2018-12-26T10:48:19.349Z,66.63
2018-12-26T11:03:52.200Z,68.47
2018-12-26T11:19:25.473Z,66.86
2018-12-26T11:34:58.228Z,67.03
2018-12-26T11:50:31.649Z,67.78
2018-12-26T12:06:05.321Z,71.17
2018-12-26T12:21:38.136Z,72.87
2018-12-26T12:37:11.208Z,74.56
2018-12-26T12:52:44.337Z,77.12
2018-12-26T13:08:17.507Z,75.77
2018-12-26T13:23:50.400Z,76.76
2018-12-26T13:39:23.367Z,78.72
2018-12-26T13:54:56.571Z,78.75
2018-12-26T14:10:30.481Z,78.43
2018-12-26T14:26:03.396Z,80.37
2018-12-26T14:41:36.598Z,82.78
2018-12-26T14:57:09.601Z,83.52
2018-12-26T15:12:42.481Z,84.08
2018-12-26T15:28:15.655Z,83.01
2018-12-26T15:43:48.643Z,83.27
2018-12-26T15:59:22.008Z,82.44
2018-12-26T16:14:55.467Z,82.57
2018-12-26T16:30:29.154Z,80.97
2018-12-26T16:46:01.960Z,79.76
2018-12-26T17:01:35.184Z,76.87
2018-12-26T17:17:08.875Z,75.73
2018-12-26T17:32:41.877Z,75.95
2018-12-26T17:48:14.891Z,77.36
2018-12-26T18:03:47.669Z,80.66
2018-12-26T18:19:21.013Z,80.02
2018-12-26T18:34:54.143Z,82.09
2018-12-26T18:50:27.348Z,78.69
2018-12-26T19:06:00.252Z,78.88
2018-12-26T19:21:33.417Z,78.43
2018-12-26T19:37:06.175Z,77.13
2018-12-26T19:52:39.758Z,73.76
2018-12-26T20:08:12.320Z,73.51
2018-12-26T20:23:45.606Z,75.09
2018-12-26T20:39:18.488Z,75.27
2018-12-26T20:54:51.587Z,76.35
2018-12-26T21:10:24.435Z,76.67
2018-12-26T21:25:58.479Z,76.13
2018-12-26T21:41:31.665Z,75.73
2018-12-26T21:57:04.597Z,75.43
2018-12-26T22:12:37.558Z,76.69
2018-12-26T22:28:10.531Z,75.58
2018-12-26T22:43:43.846Z,75.51
2018-12-26T22:59:16.887Z,74.08
2018-12-26T23:14:50.015Z,72.63
2018-12-26T23:30:22.902Z,71.81
2018-12-26T23:45:55.943Z,71.22
